createdAt,value
2022-11-15T00:00:51.032Z,3.80
2022-11-15T00:03:18.682Z,3.80
2022-11-15T00:05:45.529Z,3.80
2022-11-15T00:08:12.358Z,3.90
2022-11-15T00:10:39.108Z,3.80
2022-11-15T00:13:09.756Z,3.90
2022-11-15T00:15:37.303Z,3.80
2022-11-15T00:18:04.548Z,3.80
2022-11-15T00:20:31.512Z,3.80
2022-11-15T00:22:58.322Z,3.90
2022-11-15T00:25:25.166Z,3.90
2022-11-15T00:27:55.704Z,3.90
2022-11-15T00:30:22.473Z,3.90
2022-11-15T00:32:49.372Z,3.90
2022-11-15T00:35:16.173Z,4.00
2022-11-15T00:37:42.972Z,3.90
2022-11-15T00:40:10.212Z,3.90
2022-11-15T00:42:37.056Z,3.90
2022-11-15T00:45:04.029Z,3.90
2022-11-15T00:47:30.748Z,3.90
2022-11-15T00:49:57.592Z,3.90
2022-11-15T00:52:24.307Z,3.90
2022-11-15T00:54:51.244Z,3.90
2022-11-15T00:57:18.061Z,3.90
2022-11-15T00:59:44.775Z,3.90
2022-11-15T01:02:11.621Z,3.80
2022-11-15T01:04:38.301Z,3.90
2022-11-15T01:07:05.108Z,3.90
2022-11-15T01:09:31.920Z,3.90
2022-11-15T01:11:58.670Z,3.90
2022-11-15T01:14:25.854Z,3.90
2022-11-15T01:16:52.765Z,3.90
2022-11-15T01:19:19.530Z,3.90
2022-11-15T01:21:46.268Z,4.00
2022-11-15T01:24:13.888Z,4.00
2022-11-15T01:26:40.626Z,4.00
2022-11-15T01:29:07.363Z,4.00
2022-11-15T01:31:34.102Z,4.00
2022-11-15T01:34:00.898Z,4.00
2022-11-15T01:36:27.604Z,4.00
2022-11-15T01:38:55.926Z,4.00
2022-11-15T01:41:24.013Z,4.00
2022-11-15T01:43:53.539Z,4.10
2022-11-15T01:46:25.757Z,4.10
2022-11-15T01:48:53.619Z,4.10
2022-11-15T01:51:21.195Z,4.10
2022-11-15T01:53:49.813Z,4.10
2022-11-15T01:56:19.041Z,4.10
2022-11-15T01:58:46.594Z,4.10
2022-11-15T02:01:14.273Z,4.10
2022-11-15T02:03:44.895Z,4.10
2022-11-15T02:06:11.663Z,4.10
2022-11-15T02:08:38.427Z,4.20
2022-11-15T02:11:08.317Z,4.20
2022-11-15T02:13:35.278Z,4.20
2022-11-15T02:16:22.073Z,4.20
2022-11-15T02:18:56.252Z,4.20
2022-11-15T02:21:29.203Z,4.20
2022-11-15T02:24:14.583Z,4.20
2022-11-15T02:27:00.391Z,4.30
2022-11-15T02:29:45.931Z,4.20
2022-11-15T02:32:20.282Z,4.30
2022-11-15T02:35:01.465Z,4.30
2022-11-15T02:37:31.252Z,4.30
2022-11-15T02:40:03.361Z,4.30
2022-11-15T02:42:51.794Z,4.30
2022-11-15T02:45:21.600Z,4.30
2022-11-15T02:47:50.833Z,4.30
2022-11-15T02:50:19.627Z,4.30
2022-11-15T02:52:46.557Z,4.30
2022-11-15T02:55:30.242Z,4.30
2022-11-15T02:58:07.910Z,4.30
2022-11-15T03:00:42.195Z,4.30
2022-11-15T03:03:08.937Z,4.30
2022-11-15T03:05:43.501Z,4.30
2022-11-15T03:08:29.020Z,4.30
2022-11-15T03:11:16.016Z,4.30
2022-11-15T03:13:55.262Z,4.40
2022-11-15T03:16:24.758Z,4.40
2022-11-15T03:18:55.978Z,4.40
2022-11-15T03:21:23.323Z,4.30
2022-11-15T03:23:51.689Z,4.40
2022-11-15T03:26:19.809Z,4.30
2022-11-15T03:28:46.522Z,4.30
2022-11-15T03:31:33.459Z,4.30
2022-11-15T03:34:00.966Z,4.30
2022-11-15T03:36:27.998Z,4.30
2022-11-15T03:38:55.868Z,4.40
2022-11-15T03:41:29.198Z,4.40
2022-11-15T03:44:05.601Z,4.40
2022-11-15T03:46:40.437Z,4.40
2022-11-15T03:49:09.666Z,4.40
2022-11-15T03:51:36.680Z,4.40
2022-11-15T03:54:04.689Z,4.30
2022-11-15T03:56:31.496Z,4.30
2022-11-15T03:58:58.273Z,4.30
2022-11-15T04:01:25.087Z,4.30
2022-11-15T04:03:51.897Z,4.40
2022-11-15T04:06:18.643Z,4.40
2022-11-15T04:08:45.373Z,4.40
2022-11-15T04:11:12.124Z,4.40
2022-11-15T04:13:38.863Z,4.40
2022-11-15T04:16:05.758Z,4.40
2022-11-15T04:18:32.548Z,4.40
2022-11-15T04:21:18.035Z,4.40
2022-11-15T04:24:03.443Z,4.40
2022-11-15T04:26:30.184Z,4.40
2022-11-15T04:29:15.289Z,4.40
2022-11-15T04:31:42.051Z,4.50
2022-11-15T04:34:08.817Z,4.40
2022-11-15T04:36:54.397Z,4.50
2022-11-15T04:39:21.126Z,4.40
2022-11-15T04:41:47.885Z,4.40
2022-11-15T04:44:14.646Z,4.40
2022-11-15T04:46:41.306Z,4.40
2022-11-15T04:49:08.099Z,4.40
2022-11-15T04:51:34.811Z,4.50
2022-11-15T04:54:01.540Z,4.40
2022-11-15T04:56:28.273Z,4.50
2022-11-15T04:58:55.044Z,4.50
2022-11-15T05:01:21.948Z,4.50
2022-11-15T05:04:07.518Z,4.50
2022-11-15T05:06:34.281Z,4.40
2022-11-15T05:09:01.070Z,4.50
2022-11-15T05:11:30.450Z,4.50
2022-11-15T05:13:57.286Z,4.50
2022-11-15T05:16:24.109Z,4.60
2022-11-15T05:18:56.826Z,4.60
2022-11-15T05:21:23.621Z,4.60
2022-11-15T05:23:50.375Z,4.60
2022-11-15T05:26:18.576Z,4.60
2022-11-15T05:28:45.614Z,4.60
2022-11-15T05:31:13.805Z,4.60
2022-11-15T05:33:41.287Z,4.60
2022-11-15T05:36:10.857Z,4.60
2022-11-15T05:38:37.822Z,4.60
2022-11-15T05:41:04.774Z,4.70
2022-11-15T05:43:32.755Z,4.60
2022-11-15T05:46:00.682Z,4.60
2022-11-15T05:48:27.446Z,4.60
2022-11-15T05:50:54.275Z,4.70
2022-11-15T05:53:22.881Z,4.70
2022-11-15T05:55:49.847Z,4.70
2022-11-15T05:58:16.691Z,4.70
2022-11-15T06:00:44.309Z,4.70
2022-11-15T06:03:11.624Z,4.70
2022-11-15T06:05:38.351Z,4.70
2022-11-15T06:08:05.131Z,4.90
2022-11-15T06:10:31.812Z,4.70
2022-11-15T06:12:59.235Z,4.70
2022-11-15T06:15:26.424Z,4.80
2022-11-15T06:17:53.220Z,4.70
2022-11-15T06:20:19.948Z,4.70
2022-11-15T06:22:46.655Z,4.70
2022-11-15T06:25:13.457Z,4.80
2022-11-15T06:27:40.191Z,4.70
2022-11-15T06:30:07.227Z,4.80
2022-11-15T06:32:33.971Z,4.80
2022-11-15T06:35:00.686Z,4.80
2022-11-15T06:37:27.482Z,4.80
2022-11-15T06:39:54.216Z,4.80
2022-11-15T06:42:20.993Z,4.90
2022-11-15T06:44:47.713Z,4.90
2022-11-15T06:47:14.501Z,4.90
2022-11-15T06:49:41.238Z,4.90
2022-11-15T06:52:07.945Z,4.90
2022-11-15T06:54:36.234Z,4.90
2022-11-15T06:57:04.805Z,4.90
2022-11-15T06:59:35.169Z,5.00
2022-11-15T07:02:04.822Z,5.00
2022-11-15T07:04:31.614Z,5.00
2022-11-15T07:06:58.497Z,5.10
2022-11-15T07:09:25.306Z,5.10
2022-11-15T07:11:52.101Z,5.10
2022-11-15T07:14:18.853Z,5.10
2022-11-15T07:16:45.657Z,5.20
2022-11-15T07:19:12.387Z,5.20
2022-11-15T07:21:39.127Z,5.20
2022-11-15T07:24:06.086Z,5.20
2022-11-15T07:26:32.801Z,5.30
2022-11-15T07:28:59.907Z,5.30
2022-11-15T07:31:26.715Z,5.30
2022-11-15T07:33:53.509Z,5.40
2022-11-15T07:36:20.393Z,5.30
2022-11-15T07:38:47.214Z,5.30
2022-11-15T07:41:14.024Z,5.40
2022-11-15T07:43:40.808Z,5.50
2022-11-15T07:46:10.378Z,5.60
2022-11-15T07:48:43.895Z,5.50
2022-11-15T07:51:14.319Z,5.60
2022-11-15T07:53:41.561Z,5.60
2022-11-15T07:56:08.694Z,5.60
2022-11-15T07:58:35.522Z,5.70
2022-11-15T08:01:09.919Z,5.70
2022-11-15T08:03:36.941Z,5.80
2022-11-15T08:06:03.944Z,5.70
2022-11-15T08:08:30.691Z,5.70
2022-11-15T08:11:00.555Z,5.70
2022-11-15T08:13:27.355Z,5.70
2022-11-15T08:15:58.370Z,5.70
2022-11-15T08:18:25.108Z,5.70
2022-11-15T08:20:51.852Z,5.80
2022-11-15T08:23:18.563Z,5.80
2022-11-15T08:25:45.475Z,5.80
2022-11-15T08:28:12.422Z,5.80
2022-11-15T08:30:42.679Z,5.80
2022-11-15T08:33:13.643Z,5.70
2022-11-15T08:35:45.031Z,5.70
2022-11-15T08:38:12.301Z,5.80
2022-11-15T08:40:39.184Z,5.70
2022-11-15T08:43:05.959Z,5.80
2022-11-15T08:45:34.542Z,5.90
2022-11-15T08:48:02.297Z,5.90
2022-11-15T08:50:29.115Z,6.00
2022-11-15T08:52:55.855Z,6.10
2022-11-15T08:55:24.866Z,6.10
2022-11-15T08:57:51.982Z,6.10
2022-11-15T09:00:21.045Z,6.10
2022-11-15T09:02:48.000Z,6.10
2022-11-15T09:05:16.567Z,6.10
2022-11-15T09:07:43.544Z,6.10
2022-11-15T09:10:10.332Z,6.20
2022-11-15T09:12:37.123Z,6.20
2022-11-15T09:15:12.634Z,6.30
2022-11-15T09:17:39.425Z,6.30
2022-11-15T09:20:06.722Z,6.30
2022-11-15T09:22:33.471Z,6.30
2022-11-15T09:25:00.353Z,6.30
2022-11-15T09:27:30.921Z,6.30
2022-11-15T09:29:57.749Z,6.30
2022-11-15T09:32:25.001Z,6.40
2022-11-15T09:34:51.775Z,6.40
2022-11-15T09:37:18.563Z,6.40
2022-11-15T09:39:45.401Z,6.40
2022-11-15T09:42:30.917Z,6.50
2022-11-15T09:45:07.016Z,6.50
2022-11-15T09:47:33.792Z,6.60
2022-11-15T09:50:02.544Z,6.60
2022-11-15T09:52:29.261Z,6.60
2022-11-15T09:54:56.529Z,6.60
2022-11-15T09:57:42.694Z,6.60
2022-11-15T10:00:45.296Z,6.60
2022-11-15T10:03:13.185Z,6.60
2022-11-15T10:05:44.359Z,6.70
2022-11-15T10:08:17.971Z,6.70
2022-11-15T10:10:47.852Z,6.70
2022-11-15T10:13:23.784Z,6.70
2022-11-15T10:15:51.497Z,6.70
2022-11-15T10:18:30.751Z,6.70
2022-11-15T10:21:03.427Z,6.70
2022-11-15T10:23:30.854Z,6.70
2022-11-15T10:26:02.379Z,6.80
2022-11-15T10:28:33.691Z,6.80
2022-11-15T10:31:02.124Z,6.90
2022-11-15T10:33:31.950Z,6.90
2022-11-15T10:36:10.840Z,6.90
2022-11-15T10:38:49.590Z,7.00
2022-11-15T10:41:36.658Z,7.00
2022-11-15T10:44:03.463Z,7.00
2022-11-15T10:46:46.164Z,7.10
2022-11-15T10:49:16.739Z,7.00
2022-11-15T10:51:50.467Z,7.00
2022-11-15T10:54:29.084Z,7.10
2022-11-15T10:56:56.936Z,7.10
2022-11-15T10:59:38.862Z,7.20
2022-11-15T11:02:25.013Z,7.20
2022-11-15T11:04:52.242Z,7.30
2022-11-15T11:07:23.817Z,7.40
2022-11-15T11:09:58.406Z,7.40
2022-11-15T11:12:32.853Z,7.50
2022-11-15T11:15:00.663Z,7.60
2022-11-15T11:17:33.066Z,7.60
2022-11-15T11:20:19.027Z,7.60
2022-11-15T11:23:18.005Z,7.60
2022-11-15T11:25:51.439Z,7.60
2022-11-15T11:28:27.712Z,7.70
2022-11-15T11:31:18.568Z,7.80
2022-11-15T11:33:53.285Z,7.70
2022-11-15T11:36:27.670Z,7.70
2022-11-15T11:38:59.202Z,7.80
2022-11-15T11:41:45.123Z,7.80
2022-11-15T11:44:24.141Z,7.70
2022-11-15T11:47:08.825Z,7.70
2022-11-15T11:49:51.684Z,7.70
2022-11-15T11:52:23.146Z,7.60
2022-11-15T11:54:56.140Z,7.60
2022-11-15T11:57:25.672Z,7.60
2022-11-15T11:59:57.078Z,7.60
2022-11-15T12:02:26.982Z,7.60
2022-11-15T12:04:56.138Z,7.60
2022-11-15T12:07:25.878Z,7.60
2022-11-15T12:10:12.997Z,7.60
2022-11-15T12:12:44.494Z,7.50
2022-11-15T12:15:11.391Z,7.50
2022-11-15T12:17:39.787Z,7.40
2022-11-15T12:20:26.380Z,7.40
2022-11-15T12:23:11.938Z,7.30
2022-11-15T12:25:41.742Z,7.30
2022-11-15T12:28:17.752Z,7.30
2022-11-15T12:30:53.239Z,7.20
2022-11-15T12:33:49.601Z,7.20
2022-11-15T12:36:22.472Z,7.20
2022-11-15T12:39:01.028Z,7.20
2022-11-15T12:41:28.963Z,7.10
2022-11-15T12:43:56.089Z,7.10
2022-11-15T12:46:28.040Z,7.10
2022-11-15T12:48:57.614Z,7.10
2022-11-15T12:51:45.079Z,7.10
2022-11-15T12:54:23.930Z,7.10
2022-11-15T12:57:07.877Z,7.10
2022-11-15T12:59:56.111Z,7.00
2022-11-15T13:02:24.408Z,7.00
2022-11-15T13:04:53.423Z,7.00
2022-11-15T13:07:35.504Z,7.00
2022-11-15T13:10:27.567Z,6.90
2022-11-15T13:12:58.822Z,6.90
2022-11-15T13:15:34.992Z,6.90
2022-11-15T13:18:28.076Z,6.90
2022-11-15T13:20:58.038Z,6.80
2022-11-15T13:23:28.832Z,6.70
2022-11-15T13:26:06.366Z,6.70
2022-11-15T13:28:42.321Z,6.60
2022-11-15T13:31:27.598Z,6.50
2022-11-15T13:33:56.334Z,6.50
2022-11-15T13:36:24.207Z,6.40
2022-11-15T13:38:58.902Z,6.40
2022-11-15T13:41:33.731Z,6.40
2022-11-15T13:44:01.355Z,6.30
2022-11-15T13:46:29.430Z,6.40
2022-11-15T13:49:00.222Z,6.40
2022-11-15T13:51:29.836Z,6.40
2022-11-15T13:54:00.660Z,6.40
2022-11-15T13:56:28.762Z,6.40
2022-11-15T13:58:55.962Z,6.40
2022-11-15T14:01:23.415Z,6.40
2022-11-15T14:03:55.772Z,6.40
2022-11-15T14:06:24.416Z,6.40
2022-11-15T14:09:10.294Z,6.40
2022-11-15T14:11:37.407Z,6.40
2022-11-15T14:14:13.317Z,6.40
2022-11-15T14:16:42.853Z,6.40
2022-11-15T14:19:21.937Z,6.40
2022-11-15T14:22:07.483Z,6.40
2022-11-15T14:24:34.253Z,6.30
2022-11-15T14:27:19.656Z,6.30
2022-11-15T14:29:46.882Z,6.30
2022-11-15T14:32:15.612Z,6.30
2022-11-15T14:34:42.930Z,6.30
2022-11-15T14:37:29.297Z,6.30
2022-11-15T14:39:56.494Z,6.20
2022-11-15T14:42:23.745Z,6.20
2022-11-15T14:44:51.073Z,6.20
2022-11-15T14:47:19.669Z,6.20
2022-11-15T14:49:46.947Z,6.20
2022-11-15T14:52:27.405Z,6.20
2022-11-15T14:54:59.015Z,6.20
2022-11-15T14:57:25.764Z,6.20
2022-11-15T14:59:52.979Z,6.20
2022-11-15T15:02:21.402Z,6.20
2022-11-15T15:04:48.444Z,6.20
2022-11-15T15:07:15.488Z,6.20
2022-11-15T15:09:43.642Z,6.20
2022-11-15T15:12:15.509Z,6.20
2022-11-15T15:14:42.347Z,6.10
2022-11-15T15:17:09.457Z,6.10
2022-11-15T15:19:36.205Z,6.10
2022-11-15T15:22:03.531Z,6.10
2022-11-15T15:24:30.298Z,6.10
2022-11-15T15:26:57.015Z,6.00
2022-11-15T15:29:23.959Z,6.10
2022-11-15T15:31:50.742Z,6.10
2022-11-15T15:34:17.612Z,6.10
2022-11-15T15:36:44.773Z,6.10
2022-11-15T15:39:12.666Z,6.10
2022-11-15T15:41:39.574Z,6.10
2022-11-15T15:44:06.499Z,6.20
2022-11-15T15:46:34.999Z,6.20
2022-11-15T15:49:01.849Z,6.20
2022-11-15T15:51:28.602Z,6.20
2022-11-15T15:53:58.185Z,6.20
2022-11-15T15:56:28.080Z,6.20
2022-11-15T15:58:56.601Z,6.20
2022-11-15T16:01:23.449Z,6.20
2022-11-15T16:03:50.262Z,6.20
2022-11-15T16:06:37.044Z,6.20
2022-11-15T16:09:19.973Z,6.20
2022-11-15T16:11:48.028Z,6.10
2022-11-15T16:14:14.924Z,6.10
2022-11-15T16:16:41.726Z,6.10
2022-11-15T16:19:09.941Z,6.10
2022-11-15T16:21:36.678Z,6.10
2022-11-15T16:24:03.463Z,6.00
2022-11-15T16:26:30.960Z,6.00
2022-11-15T16:28:58.580Z,6.10
2022-11-15T16:31:25.376Z,6.10
2022-11-15T16:33:52.069Z,6.10
2022-11-15T16:36:29.986Z,6.10
2022-11-15T16:38:57.862Z,6.10
2022-11-15T16:41:24.580Z,6.10
2022-11-15T16:43:51.386Z,6.10
2022-11-15T16:46:22.280Z,6.00
2022-11-15T16:48:49.446Z,5.90
2022-11-15T16:51:16.740Z,5.90
2022-11-15T16:53:43.719Z,5.80
2022-11-15T16:56:22.648Z,5.80
2022-11-15T16:58:49.480Z,5.70
2022-11-15T17:01:22.223Z,5.70
2022-11-15T17:03:48.983Z,5.60
2022-11-15T17:06:15.810Z,5.50
2022-11-15T17:08:42.583Z,5.50
2022-11-15T17:11:09.330Z,5.40
2022-11-15T17:13:36.067Z,5.20
2022-11-15T17:16:03.921Z,5.20
2022-11-15T17:18:30.937Z,5.10
2022-11-15T17:20:57.829Z,5.10
2022-11-15T17:23:24.825Z,5.00
2022-11-15T17:26:17.626Z,4.90
2022-11-15T17:28:45.539Z,4.90
2022-11-15T17:31:13.911Z,4.80
2022-11-15T17:33:41.467Z,4.80
2022-11-15T17:36:10.662Z,4.70
2022-11-15T17:38:37.481Z,4.70
2022-11-15T17:41:05.399Z,4.60
2022-11-15T17:43:33.433Z,4.70
2022-11-15T17:46:00.665Z,4.70
2022-11-15T17:48:27.453Z,4.60
2022-11-15T17:50:57.342Z,4.60
2022-11-15T17:53:24.966Z,4.60
2022-11-15T17:55:51.771Z,4.60
2022-11-15T17:58:18.881Z,4.60
2022-11-15T18:00:46.405Z,4.50
2022-11-15T18:03:15.661Z,4.50
2022-11-15T18:05:45.894Z,4.50
2022-11-15T18:08:16.622Z,4.50
2022-11-15T18:10:43.372Z,4.40
2022-11-15T18:13:10.274Z,4.40
2022-11-15T18:15:37.120Z,4.40
2022-11-15T18:18:03.883Z,4.40
2022-11-15T18:20:30.698Z,4.40
2022-11-15T18:22:57.396Z,4.40
2022-11-15T18:25:24.218Z,4.40
2022-11-15T18:27:55.349Z,4.40
2022-11-15T18:30:22.653Z,4.40
2022-11-15T18:32:49.506Z,4.40
2022-11-15T18:35:16.384Z,4.40
2022-11-15T18:37:43.101Z,4.40
2022-11-15T18:40:09.996Z,4.40
2022-11-15T18:42:36.762Z,4.40
2022-11-15T18:45:03.667Z,4.40
2022-11-15T18:47:31.734Z,4.40
2022-11-15T18:49:59.774Z,4.30
2022-11-15T18:52:26.536Z,4.40
2022-11-15T18:54:53.324Z,4.30
2022-11-15T18:57:20.077Z,4.40
2022-11-15T18:59:46.878Z,4.40
2022-11-15T19:02:13.652Z,4.40
2022-11-15T19:04:40.391Z,4.30
2022-11-15T19:07:07.179Z,4.30
2022-11-15T19:09:34.051Z,4.30
2022-11-15T19:12:01.126Z,4.30
2022-11-15T19:14:28.530Z,4.20
2022-11-15T19:16:55.751Z,4.20
2022-11-15T19:19:24.480Z,4.20
2022-11-15T19:21:52.132Z,4.10
2022-11-15T19:24:19.012Z,4.10
2022-11-15T19:26:47.053Z,4.10
2022-11-15T19:29:14.329Z,4.10
2022-11-15T19:31:41.354Z,4.00
2022-11-15T19:34:08.512Z,4.10
2022-11-15T19:36:36.971Z,4.10
2022-11-15T19:39:08.257Z,4.10
2022-11-15T19:41:35.871Z,4.10
2022-11-15T19:44:02.838Z,4.10
2022-11-15T19:46:29.626Z,4.10
2022-11-15T19:48:56.362Z,4.10
2022-11-15T19:51:24.033Z,4.00
2022-11-15T19:53:54.769Z,4.00
2022-11-15T19:56:22.340Z,4.00
2022-11-15T19:58:53.347Z,3.90
2022-11-15T20:01:20.245Z,3.90
2022-11-15T20:03:47.923Z,3.90
2022-11-15T20:06:17.189Z,4.00
2022-11-15T20:08:44.857Z,3.90
2022-11-15T20:11:12.368Z,3.90
2022-11-15T20:13:39.438Z,3.90
2022-11-15T20:16:06.422Z,3.80
2022-11-15T20:18:33.579Z,3.80
2022-11-15T20:21:00.989Z,3.80
2022-11-15T20:23:27.717Z,3.80
2022-11-15T20:25:54.936Z,3.80
2022-11-15T20:28:23.097Z,3.80
2022-11-15T20:30:52.023Z,3.80
2022-11-15T20:33:19.358Z,3.80
2022-11-15T20:35:46.149Z,3.80
2022-11-15T20:38:12.922Z,3.80
2022-11-15T20:40:39.791Z,3.80
2022-11-15T20:43:07.078Z,3.80
2022-11-15T20:45:33.783Z,3.80
2022-11-15T20:48:00.514Z,3.70
2022-11-15T20:50:42.285Z,3.80
2022-11-15T20:53:10.670Z,3.70
2022-11-15T20:55:41.416Z,3.70
2022-11-15T20:58:09.110Z,3.70
2022-11-15T21:00:36.974Z,3.80
2022-11-15T21:03:07.798Z,3.70
2022-11-15T21:05:34.954Z,3.70
2022-11-15T21:08:01.760Z,3.80
2022-11-15T21:10:47.210Z,3.80
2022-11-15T21:13:14.096Z,3.80
2022-11-15T21:15:40.790Z,3.80
2022-11-15T21:18:07.568Z,3.70
2022-11-15T21:20:34.288Z,3.70
2022-11-15T21:23:01.072Z,3.70
2022-11-15T21:25:27.821Z,3.60
2022-11-15T21:27:54.609Z,3.60
2022-11-15T21:30:21.432Z,3.60
2022-11-15T21:32:48.287Z,3.60
2022-11-15T21:35:15.192Z,3.60
2022-11-15T21:37:41.991Z,3.50
2022-11-15T21:40:09.208Z,3.50
2022-11-15T21:42:35.947Z,3.50
2022-11-15T21:45:02.756Z,3.50
2022-11-15T21:47:29.814Z,3.50
2022-11-15T21:49:56.568Z,3.50
2022-11-15T21:52:23.340Z,3.60
2022-11-15T21:54:50.174Z,3.50
2022-11-15T21:57:18.964Z,3.50
2022-11-15T22:00:04.475Z,3.50
2022-11-15T22:02:31.218Z,3.40
2022-11-15T22:04:58.046Z,3.30
2022-11-15T22:07:24.844Z,3.30
2022-11-15T22:09:51.636Z,3.20
2022-11-15T22:12:18.356Z,3.10
2022-11-15T22:14:45.091Z,3.10
2022-11-15T22:17:12.262Z,3.10
2022-11-15T22:19:51.777Z,3.10
2022-11-15T22:22:19.122Z,3.10
2022-11-15T22:24:45.937Z,3.10
2022-11-15T22:27:12.711Z,3.10
2022-11-15T22:29:39.538Z,3.00
2022-11-15T22:32:06.361Z,3.00
2022-11-15T22:34:33.161Z,3.00
2022-11-15T22:37:19.676Z,3.10
2022-11-15T22:39:46.780Z,3.10
2022-11-15T22:42:13.642Z,3.10
2022-11-15T22:44:40.491Z,3.10
2022-11-15T22:47:07.278Z,3.10
2022-11-15T22:49:34.046Z,3.10
2022-11-15T22:52:00.778Z,3.10
2022-11-15T22:54:28.532Z,3.20
2022-11-15T22:56:55.348Z,3.20
2022-11-15T22:59:22.125Z,3.30
2022-11-15T23:01:50.979Z,3.30
2022-11-15T23:04:17.746Z,3.30
2022-11-15T23:06:44.533Z,3.20
2022-11-15T23:09:11.400Z,3.20
2022-11-15T23:11:56.646Z,3.20
2022-11-15T23:14:23.798Z,3.20
2022-11-15T23:16:50.593Z,3.20
2022-11-15T23:19:17.380Z,3.20
2022-11-15T23:22:04.041Z,3.20
2022-11-15T23:24:31.668Z,3.30
2022-11-15T23:27:02.369Z,3.30
2022-11-15T23:29:30.105Z,3.30
2022-11-15T23:32:15.668Z,3.30
2022-11-15T23:34:43.973Z,3.30
2022-11-15T23:37:12.274Z,3.20
2022-11-15T23:39:39.132Z,3.20
2022-11-15T23:42:09.021Z,3.20
2022-11-15T23:44:36.797Z,3.10
2022-11-15T23:47:03.722Z,3.00
2022-11-15T23:49:30.530Z,3.00
2022-11-15T23:51:57.474Z,3.00
2022-11-15T23:54:24.235Z,3.00
2022-11-15T23:56:51.029Z,3.00
2022-11-15T23:59:18.334Z,3.00
